sensor_id;sensor_type;location;lat;lon;timestamp;pressure;altitude;pressure_sealevel;temperature;humidity
71666;BME280;59503;53.486;10.196;2023-04-25T00:00:15;100468.63;;;7.12;100.00
71666;BME280;59503;53.486;10.196;2023-04-25T00:02:42;100481.13;;;7.17;100.00
71666;BME280;59503;53.486;10.196;2023-04-25T00:05:07;100482.13;;;7.12;100.00
71666;BME280;59503;53.486;10.196;2023-04-25T00:07:34;100485.88;;;7.08;100.00
71666;BME280;59503;53.486;10.196;2023-04-25T00:10:00;100477.31;;;7.06;100.00
71666;BME280;59503;53.486;10.196;2023-04-25T00:12:25;100487.78;;;7.07;100.00
71666;BME280;59503;53.486;10.196;2023-04-25T00:14:53;100483.63;;;7.10;100.00
71666;BME280;59503;53.486;10.196;2023-04-25T00:17:19;100479.69;;;7.07;100.00
71666;BME280;59503;53.486;10.196;2023-04-25T00:19:44;100482.06;;;7.09;100.00
71666;BME280;59503;53.486;10.196;2023-04-25T00:22:12;100482.84;;;7.09;100.00
71666;BME280;59503;53.486;10.196;2023-04-25T00:24:38;100493.53;;;7.06;100.00
71666;BME280;59503;53.486;10.196;2023-04-25T00:27:03;100492.78;;;7.05;100.00
71666;BME280;59503;53.486;10.196;2023-04-25T00:29:29;100499.16;;;7.13;100.00
71666;BME280;59503;53.486;10.196;2023-04-25T00:31:55;100496.09;;;7.14;100.00
71666;BME280;59503;53.486;10.196;2023-04-25T00:34:20;100512.03;;;7.04;100.00
71666;BME280;59503;53.486;10.196;2023-04-25T00:36:45;100494.69;;;7.05;100.00
71666;BME280;59503;53.486;10.196;2023-04-25T00:39:12;100506.53;;;7.00;100.00
71666;BME280;59503;53.486;10.196;2023-04-25T00:41:38;100505.63;;;6.96;100.00
71666;BME280;59503;53.486;10.196;2023-04-25T00:44:04;100505.53;;;6.93;100.00
71666;BME280;59503;53.486;10.196;2023-04-25T00:46:32;100508.56;;;6.91;100.00
71666;BME280;59503;53.486;10.196;2023-04-25T00:48:57;100507.69;;;6.87;100.00
71666;BME280;59503;53.486;10.196;2023-04-25T00:51:23;100510.72;;;6.86;100.00
71666;BME280;59503;53.486;10.196;2023-04-25T00:53:50;100512.22;;;6.83;100.00
71666;BME280;59503;53.486;10.196;2023-04-25T00:56:16;100514.47;;;6.81;100.00
71666;BME280;59503;53.486;10.196;2023-04-25T00:58:42;100527.97;;;6.81;100.00
71666;BME280;59503;53.486;10.196;2023-04-25T01:01:11;100524.38;;;6.77;100.00
71666;BME280;59503;53.486;10.196;2023-04-25T01:17:57;100515.53;;;6.53;100.00
71666;BME280;59503;53.486;10.196;2023-04-25T01:20:24;100523.19;;;6.51;100.00
71666;BME280;59503;53.486;10.196;2023-04-25T01:22:50;100523.75;;;6.56;100.00
71666;BME280;59503;53.486;10.196;2023-04-25T01:25:17;100526.78;;;6.55;100.00
71666;BME280;59503;53.486;10.196;2023-04-25T01:27:43;100517.09;;;6.54;100.00
71666;BME280;59503;53.486;10.196;2023-04-25T01:30:09;100530.59;;;6.54;100.00
71666;BME280;59503;53.486;10.196;2023-04-25T01:32:35;100519.78;;;6.54;100.00
71666;BME280;59503;53.486;10.196;2023-04-25T01:35:08;100530.81;;;6.49;100.00
71666;BME280;59503;53.486;10.196;2023-04-25T01:37:41;100533.97;;;6.51;100.00
71666;BME280;59503;53.486;10.196;2023-04-25T01:40:10;100535.13;;;6.50;100.00
71666;BME280;59503;53.486;10.196;2023-04-25T01:42:40;100542.75;;;6.48;100.00
71666;BME280;59503;53.486;10.196;2023-04-25T01:45:06;100545.47;;;6.48;100.00
71666;BME280;59503;53.486;10.196;2023-04-25T01:47:32;100543.34;;;6.41;100.00
71666;BME280;59503;53.486;10.196;2023-04-25T01:50:01;100538.50;;;6.35;100.00
71666;BME280;59503;53.486;10.196;2023-04-25T01:52:27;100541.44;;;6.42;100.00
71666;BME280;59503;53.486;10.196;2023-04-25T01:54:53;100548.63;;;6.38;100.00
71666;BME280;59503;53.486;10.196;2023-04-25T01:57:19;100557.94;;;6.40;100.00
71666;BME280;59503;53.486;10.196;2023-04-25T01:59:45;100564.13;;;6.41;100.00
71666;BME280;59503;53.486;10.196;2023-04-25T02:02:11;100556.59;;;6.34;100.00
71666;BME280;59503;53.486;10.196;2023-04-25T02:04:36;100561.19;;;6.33;100.00
71666;BME280;59503;53.486;10.196;2023-04-25T02:07:03;100559.41;;;6.25;100.00
71666;BME280;59503;53.486;10.196;2023-04-25T02:09:28;100558.84;;;6.20;100.00
71666;BME280;59503;53.486;10.196;2023-04-25T02:11:54;100565.16;;;6.24;100.00
71666;BME280;59503;53.486;10.196;2023-04-25T02:14:19;100562.34;;;6.20;100.00
71666;BME280;59503;53.486;10.196;2023-04-25T02:16:45;100574.47;;;6.14;100.00
71666;BME280;59503;53.486;10.196;2023-04-25T02:19:11;100570.19;;;6.13;100.00
71666;BME280;59503;53.486;10.196;2023-04-25T02:21:36;100569.53;;;6.16;100.00
71666;BME280;59503;53.486;10.196;2023-04-25T02:24:02;100577.84;;;6.11;100.00
71666;BME280;59503;53.486;10.196;2023-04-25T02:26:28;100574.03;;;6.12;100.00
71666;BME280;59503;53.486;10.196;2023-04-25T02:28:56;100577.72;;;6.08;100.00
71666;BME280;59503;53.486;10.196;2023-04-25T02:31:22;100578.28;;;6.01;100.00
71666;BME280;59503;53.486;10.196;2023-04-25T02:33:47;100580.88;;;6.10;100.00
71666;BME280;59503;53.486;10.196;2023-04-25T02:36:13;100586.59;;;6.08;100.00
71666;BME280;59503;53.486;10.196;2023-04-25T02:38:38;100580.31;;;6.04;100.00
71666;BME280;59503;53.486;10.196;2023-04-25T02:41:04;100583.69;;;6.01;100.00
71666;BME280;59503;53.486;10.196;2023-04-25T02:43:29;100580.28;;;5.92;100.00
71666;BME280;59503;53.486;10.196;2023-04-25T02:45:55;100586.03;;;5.91;100.00
71666;BME280;59503;53.486;10.196;2023-04-25T02:48:20;100585.63;;;5.80;100.00
71666;BME280;59503;53.486;10.196;2023-04-25T02:50:46;100575.47;;;5.65;100.00
71666;BME280;59503;53.486;10.196;2023-04-25T02:53:11;100576.25;;;5.66;100.00
71666;BME280;59503;53.486;10.196;2023-04-25T02:55:37;100581.66;;;5.66;100.00
71666;BME280;59503;53.486;10.196;2023-04-25T02:58:02;100586.25;;;5.65;100.00
71666;BME280;59503;53.486;10.196;2023-04-25T03:00:28;100583.09;;;5.63;100.00
71666;BME280;59503;53.486;10.196;2023-04-25T03:02:53;100587.16;;;5.69;100.00
71666;BME280;59503;53.486;10.196;2023-04-25T03:05:19;100587.66;;;5.83;100.00
71666;BME280;59503;53.486;10.196;2023-04-25T03:07:44;100605.03;;;5.74;100.00
71666;BME280;59503;53.486;10.196;2023-04-25T03:10:11;100594.19;;;5.82;100.00
71666;BME280;59503;53.486;10.196;2023-04-25T03:12:37;100613.13;;;5.74;100.00
71666;BME280;59503;53.486;10.196;2023-04-25T03:15:03;100596.25;;;5.65;100.00
71666;BME280;59503;53.486;10.196;2023-04-25T03:17:29;100601.50;;;5.61;100.00
71666;BME280;59503;53.486;10.196;2023-04-25T03:19:55;100608.09;;;5.52;100.00
71666;BME280;59503;53.486;10.196;2023-04-25T03:22:20;100612.56;;;5.48;100.00
71666;BME280;59503;53.486;10.196;2023-04-25T03:24:46;100618.06;;;5.39;100.00
71666;BME280;59503;53.486;10.196;2023-04-25T03:27:12;100615.84;;;5.53;100.00
71666;BME280;59503;53.486;10.196;2023-04-25T03:29:37;100615.84;;;5.53;100.00
71666;BME280;59503;53.486;10.196;2023-04-25T03:32:03;100613.50;;;5.52;100.00
71666;BME280;59503;53.486;10.196;2023-04-25T03:34:28;100623.59;;;5.55;100.00
71666;BME280;59503;53.486;10.196;2023-04-25T03:36:54;100624.16;;;5.48;100.00
71666;BME280;59503;53.486;10.196;2023-04-25T03:39:20;100623.75;;;5.38;100.00
71666;BME280;59503;53.486;10.196;2023-04-25T03:41:46;100626.00;;;5.36;100.00
71666;BME280;59503;53.486;10.196;2023-04-25T03:44:11;100619.16;;;5.38;100.00
71666;BME280;59503;53.486;10.196;2023-04-25T03:46:36;100629.53;;;5.28;100.00
71666;BME280;59503;53.486;10.196;2023-04-25T03:49:02;100622.38;;;5.11;100.00
71666;BME280;59503;53.486;10.196;2023-04-25T03:51:27;100627.69;;;4.99;100.00
71666;BME280;59503;53.486;10.196;2023-04-25T03:53:53;100632.50;;;4.93;100.00
71666;BME280;59503;53.486;10.196;2023-04-25T03:56:18;100632.50;;;4.93;100.00
71666;BME280;59503;53.486;10.196;2023-04-25T03:58:45;100635.31;;;4.97;100.00
71666;BME280;59503;53.486;10.196;2023-04-25T04:01:10;100633.44;;;4.89;100.00
71666;BME280;59503;53.486;10.196;2023-04-25T04:03:36;100639.63;;;4.89;100.00
71666;BME280;59503;53.486;10.196;2023-04-25T04:06:03;100644.22;;;4.89;100.00
71666;BME280;59503;53.486;10.196;2023-04-25T04:08:29;100647.91;;;4.84;100.00
71666;BME280;59503;53.486;10.196;2023-04-25T04:10:56;100644.22;;;4.89;100.00
71666;BME280;59503;53.486;10.196;2023-04-25T04:13:22;100657.78;;;5.01;100.00
71666;BME280;59503;53.486;10.196;2023-04-25T04:15:47;100652.25;;;4.97;100.00
71666;BME280;59503;53.486;10.196;2023-04-25T04:18:13;100653.53;;;5.00;100.00
71666;BME280;59503;53.486;10.196;2023-04-25T04:20:38;100661.50;;;4.88;100.00
71666;BME280;59503;53.486;10.196;2023-04-25T04:23:04;100661.97;;;4.90;100.00
71666;BME280;59503;53.486;10.196;2023-04-25T04:25:30;100662.34;;;4.80;100.00
71666;BME280;59503;53.486;10.196;2023-04-25T04:27:55;100672.47;;;4.83;100.00
71666;BME280;59503;53.486;10.196;2023-04-25T04:30:24;100669.97;;;4.78;100.00
71666;BME280;59503;53.486;10.196;2023-04-25T04:32:51;100668.44;;;4.68;100.00
71666;BME280;59503;53.486;10.196;2023-04-25T04:35:17;100668.09;;;4.70;100.00
71666;BME280;59503;53.486;10.196;2023-04-25T04:37:42;100663.63;;;4.74;100.00
71666;BME280;59503;53.486;10.196;2023-04-25T04:40:09;100667.16;;;4.66;100.00
71666;BME280;59503;53.486;10.196;2023-04-25T04:42:34;100673.19;;;4.63;100.00
71666;BME280;59503;53.486;10.196;2023-04-25T04:45:01;100678.09;;;4.61;100.00
71666;BME280;59503;53.486;10.196;2023-04-25T04:47:28;100681.16;;;4.51;100.00
71666;BME280;59503;53.486;10.196;2023-04-25T04:49:56;100684.69;;;4.43;100.00
71666;BME280;59503;53.486;10.196;2023-04-25T04:52:22;100678.63;;;4.46;100.00
71666;BME280;59503;53.486;10.196;2023-04-25T04:54:47;100692.56;;;4.48;100.00
71666;BME280;59503;53.486;10.196;2023-04-25T04:57:13;100687.84;;;4.45;100.00
71666;BME280;59503;53.486;10.196;2023-04-25T04:59:38;100678.34;;;4.39;100.00
71666;BME280;59503;53.486;10.196;2023-04-25T05:02:04;100698.91;;;4.52;100.00
71666;BME280;59503;53.486;10.196;2023-04-25T05:04:30;100702.28;;;4.78;100.00
71666;BME280;59503;53.486;10.196;2023-04-25T05:06:55;100712.34;;;4.89;100.00
71666;BME280;59503;53.486;10.196;2023-04-25T05:09:21;100702.03;;;4.91;100.00
71666;BME280;59503;53.486;10.196;2023-04-25T05:11:51;100708.78;;;5.06;100.00
71666;BME280;59503;53.486;10.196;2023-04-25T05:14:16;100704.66;;;5.08;100.00
71666;BME280;59503;53.486;10.196;2023-04-25T05:16:43;100711.09;;;5.16;100.00
71666;BME280;59503;53.486;10.196;2023-04-25T05:19:08;100711.78;;;5.34;100.00
71666;BME280;59503;53.486;10.196;2023-04-25T05:21:34;100711.88;;;5.46;100.00
71666;BME280;59503;53.486;10.196;2023-04-25T05:24:00;100726.00;;;5.63;100.00
71666;BME280;59503;53.486;10.196;2023-04-25T05:26:25;100721.72;;;5.62;99.39
71666;BME280;59503;53.486;10.196;2023-04-25T05:28:51;100718.31;;;5.53;100.00
71666;BME280;59503;53.486;10.196;2023-04-25T05:31:16;100728.13;;;5.58;99.41
71666;BME280;59503;53.486;10.196;2023-04-25T05:33:42;100733.03;;;5.56;100.00
71666;BME280;59503;53.486;10.196;2023-04-25T05:36:07;100746.59;;;5.68;100.00
71666;BME280;59503;53.486;10.196;2023-04-25T05:38:33;100744.94;;;5.55;100.00
71666;BME280;59503;53.486;10.196;2023-04-25T05:40:58;100745.22;;;5.33;100.00
71666;BME280;59503;53.486;10.196;2023-04-25T05:43:24;100747.09;;;5.12;100.00
71666;BME280;59503;53.486;10.196;2023-04-25T05:45:49;100742.56;;;5.03;100.00
71666;BME280;59503;53.486;10.196;2023-04-25T05:48:15;100734.81;;;5.02;100.00
71666;BME280;59503;53.486;10.196;2023-04-25T05:50:41;100729.09;;;5.03;100.00
71666;BME280;59503;53.486;10.196;2023-04-25T05:53:06;100745.34;;;5.16;100.00
71666;BME280;59503;53.486;10.196;2023-04-25T05:55:31;100734.72;;;5.19;100.00
71666;BME280;59503;53.486;10.196;2023-04-25T05:57:57;100750.31;;;5.34;100.00
71666;BME280;59503;53.486;10.196;2023-04-25T06:00:22;100745.19;;;5.41;100.00
71666;BME280;59503;53.486;10.196;2023-04-25T06:02:48;100747.88;;;5.41;100.00
71666;BME280;59503;53.486;10.196;2023-04-25T06:05:14;100741.53;;;5.46;100.00
71666;BME280;59503;53.486;10.196;2023-04-25T06:07:39;100738.91;;;5.58;100.00
71666;BME280;59503;53.486;10.196;2023-04-25T06:10:06;100751.44;;;5.54;100.00
71666;BME280;59503;53.486;10.196;2023-04-25T06:12:34;100756.44;;;5.64;100.00
71666;BME280;59503;53.486;10.196;2023-04-25T06:15:00;100759.09;;;5.72;100.00
71666;BME280;59503;53.486;10.196;2023-04-25T06:17:26;100754.91;;;5.83;100.00
71666;BME280;59503;53.486;10.196;2023-04-25T06:19:51;100758.66;;;5.91;100.00
71666;BME280;59503;53.486;10.196;2023-04-25T06:22:17;100763.31;;;6.02;100.00
71666;BME280;59503;53.486;10.196;2023-04-25T06:24:42;100758.59;;;5.99;100.00
71666;BME280;59503;53.486;10.196;2023-04-25T06:27:07;100770.75;;;6.05;100.00
71666;BME280;59503;53.486;10.196;2023-04-25T06:29:33;100765.41;;;6.17;100.00
71666;BME280;59503;53.486;10.196;2023-04-25T06:31:58;100764.66;;;6.29;100.00
71666;BME280;59503;53.486;10.196;2023-04-25T06:34:24;100770.22;;;6.45;100.00
71666;BME280;59503;53.486;10.196;2023-04-25T06:36:49;100781.28;;;6.52;100.00
71666;BME280;59503;53.486;10.196;2023-04-25T06:39:15;100777.66;;;6.48;100.00
71666;BME280;59503;53.486;10.196;2023-04-25T06:41:41;100775.59;;;6.65;100.00
71666;BME280;59503;53.486;10.196;2023-04-25T06:44:07;100771.66;;;6.75;100.00
71666;BME280;59503;53.486;10.196;2023-04-25T06:46:32;100786.59;;;6.60;100.00
71666;BME280;59503;53.486;10.196;2023-04-25T06:48:58;100775.59;;;6.65;100.00
71666;BME280;59503;53.486;10.196;2023-04-25T06:51:23;100776.34;;;6.66;100.00
71666;BME280;59503;53.486;10.196;2023-04-25T06:53:49;100789.47;;;6.43;100.00
71666;BME280;59503;53.486;10.196;2023-04-25T06:56:15;100783.72;;;6.45;100.00
71666;BME280;59503;53.486;10.196;2023-04-25T06:58:41;100787.13;;;6.54;100.00
71666;BME280;59503;53.486;10.196;2023-04-25T07:01:06;100783.91;;;6.60;100.00
71666;BME280;59503;53.486;10.196;2023-04-25T07:03:32;100785.06;;;6.83;100.00
71666;BME280;59503;53.486;10.196;2023-04-25T07:05:57;100803.31;;;6.54;100.00
71666;BME280;59503;53.486;10.196;2023-04-25T07:08:23;100791.91;;;6.81;100.00
71666;BME280;59503;53.486;10.196;2023-04-25T07:10:48;100783.25;;;6.87;100.00
71666;BME280;59503;53.486;10.196;2023-04-25T07:13:14;100803.00;;;7.12;100.00
71666;BME280;59503;53.486;10.196;2023-04-25T07:15:39;100795.34;;;7.38;100.00
71666;BME280;59503;53.486;10.196;2023-04-25T07:18:05;100796.72;;;7.44;97.17
71666;BME280;59503;53.486;10.196;2023-04-25T07:20:30;100798.72;;;7.47;97.23
71666;BME280;59503;53.486;10.196;2023-04-25T07:22:56;100802.88;;;7.56;96.45
71666;BME280;59503;53.486;10.196;2023-04-25T07:25:22;100800.41;;;7.39;95.15
71666;BME280;59503;53.486;10.196;2023-04-25T07:27:48;100803.56;;;7.66;96.50
71666;BME280;59503;53.486;10.196;2023-04-25T07:30:13;100818.88;;;7.74;93.76
71666;BME280;59503;53.486;10.196;2023-04-25T07:32:39;100801.63;;;7.66;95.58
71666;BME280;59503;53.486;10.196;2023-04-25T07:35:05;100817.19;;;7.81;94.23
71666;BME280;59503;53.486;10.196;2023-04-25T07:37:33;100824.53;;;7.44;94.47
71666;BME280;59503;53.486;10.196;2023-04-25T07:39:58;100812.00;;;7.76;96.48
71666;BME280;59503;53.486;10.196;2023-04-25T07:42:24;100814.00;;;7.91;94.13
71666;BME280;59503;53.486;10.196;2023-04-25T07:44:49;100824.72;;;7.88;93.42
71666;BME280;59503;53.486;10.196;2023-04-25T07:47:16;100810.34;;;8.11;92.35
71666;BME280;59503;53.486;10.196;2023-04-25T07:49:44;100816.03;;;7.94;94.08
71666;BME280;59503;53.486;10.196;2023-04-25T07:52:10;100823.81;;;7.72;90.74
71666;BME280;59503;53.486;10.196;2023-04-25T07:54:36;100811.09;;;7.84;92.93
71666;BME280;59503;53.486;10.196;2023-04-25T07:57:01;100822.78;;;7.88;93.88
71666;BME280;59503;53.486;10.196;2023-04-25T07:59:27;100826.31;;;7.65;92.75
71666;BME280;59503;53.486;10.196;2023-04-25T08:01:53;100824.28;;;7.62;92.79
71666;BME280;59503;53.486;10.196;2023-04-25T08:04:18;100824.16;;;7.70;89.53
71666;BME280;59503;53.486;10.196;2023-04-25T08:06:43;100830.16;;;7.64;90.82
71666;BME280;59503;53.486;10.196;2023-04-25T08:09:09;100810.50;;;7.91;91.52
71666;BME280;59503;53.486;10.196;2023-04-25T08:11:35;100804.44;;;8.21;91.58
71666;BME280;59503;53.486;10.196;2023-04-25T08:14:01;100813.38;;;8.49;88.56
71666;BME280;59503;53.486;10.196;2023-04-25T08:16:27;100821.81;;;8.75;87.65
71666;BME280;59503;53.486;10.196;2023-04-25T08:18:52;100827.75;;;8.65;84.03
71666;BME280;59503;53.486;10.196;2023-04-25T08:21:18;100844.59;;;9.02;85.61
71666;BME280;59503;53.486;10.196;2023-04-25T08:23:43;100835.06;;;9.55;82.20
71666;BME280;59503;53.486;10.196;2023-04-25T08:26:09;100837.66;;;9.67;78.17
71666;BME280;59503;53.486;10.196;2023-04-25T08:28:34;100839.84;;;9.77;76.21
71666;BME280;59503;53.486;10.196;2023-04-25T08:31:00;100852.13;;;9.09;74.71
71666;BME280;59503;53.486;10.196;2023-04-25T08:33:25;100847.81;;;8.76;77.85
71666;BME280;59503;53.486;10.196;2023-04-25T08:35:51;100851.47;;;8.68;77.29
71666;BME280;59503;53.486;10.196;2023-04-25T08:38:17;100845.03;;;8.89;79.57
71666;BME280;59503;53.486;10.196;2023-04-25T08:40:43;100848.16;;;8.75;80.29
71666;BME280;59503;53.486;10.196;2023-04-25T08:43:09;100854.22;;;8.56;79.86
71666;BME280;59503;53.486;10.196;2023-04-25T08:45:41;100863.06;;;8.41;80.62
71666;BME280;59503;53.486;10.196;2023-04-25T08:48:11;100861.03;;;8.38;78.36
71666;BME280;59503;53.486;10.196;2023-04-25T08:50:41;100865.91;;;8.60;77.95
71666;BME280;59503;53.486;10.196;2023-04-25T08:53:12;100864.94;;;8.80;77.06
71666;BME280;59503;53.486;10.196;2023-04-25T08:55:45;100873.22;;;8.44;75.19
71666;BME280;59503;53.486;10.196;2023-04-25T08:58:11;100869.19;;;8.66;80.11
71666;BME280;59503;53.486;10.196;2023-04-25T09:00:36;100882.47;;;8.99;79.55
71666;BME280;59503;53.486;10.196;2023-04-25T09:03:03;100871.78;;;9.06;73.40
71666;BME280;59503;53.486;10.196;2023-04-25T09:05:28;100888.78;;;9.18;76.77
71666;BME280;59503;53.486;10.196;2023-04-25T09:07:54;100883.97;;;9.12;76.32
71666;BME280;59503;53.486;10.196;2023-04-25T09:10:21;100881.78;;;9.33;78.26
71666;BME280;59503;53.486;10.196;2023-04-25T09:13:06;100895.44;;;9.21;73.19
71666;BME280;59503;53.486;10.196;2023-04-25T09:15:32;100888.06;;;9.06;74.14
71666;BME280;59503;53.486;10.196;2023-04-25T09:17:59;100903.00;;;9.00;77.66
71666;BME280;59503;53.486;10.196;2023-04-25T09:20:25;100914.56;;;8.97;79.19
71666;BME280;59503;53.486;10.196;2023-04-25T09:23:04;100918.00;;;8.82;78.42
71666;BME280;59503;53.486;10.196;2023-04-25T09:25:37;100924.91;;;8.51;80.85
71666;BME280;59503;53.486;10.196;2023-04-25T09:28:06;100928.78;;;8.66;77.45
71666;BME280;59503;53.486;10.196;2023-04-25T09:30:34;100931.53;;;8.54;77.07
71666;BME280;59503;53.486;10.196;2023-04-25T09:33:07;100948.53;;;8.03;78.44
71666;BME280;59503;53.486;10.196;2023-04-25T09:35:37;100935.09;;;7.70;80.06
71666;BME280;59503;53.486;10.196;2023-04-25T09:38:12;100946.13;;;7.53;82.34
71666;BME280;59503;53.486;10.196;2023-04-25T09:40:40;100953.13;;;7.78;85.15
71666;BME280;59503;53.486;10.196;2023-04-25T09:43:24;100949.78;;;7.81;84.00
71666;BME280;59503;53.486;10.196;2023-04-25T09:45:51;100939.84;;;7.97;83.45
71666;BME280;59503;53.486;10.196;2023-04-25T09:48:19;100940.94;;;8.08;86.43
71666;BME280;59503;53.486;10.196;2023-04-25T09:50:57;100956.78;;;7.94;81.42
71666;BME280;59503;53.486;10.196;2023-04-25T09:53:29;100964.59;;;8.59;83.57
71666;BME280;59503;53.486;10.196;2023-04-25T09:55:55;100947.03;;;9.09;80.10
71666;BME280;59503;53.486;10.196;2023-04-25T09:58:23;100966.75;;;10.11;74.91
71666;BME280;59503;53.486;10.196;2023-04-25T10:00:50;100984.88;;;9.33;79.51
71666;BME280;59503;53.486;10.196;2023-04-25T10:03:17;100983.84;;;8.82;94.70
71666;BME280;59503;53.486;10.196;2023-04-25T10:05:43;100984.63;;;8.31;99.55
71666;BME280;59503;53.486;10.196;2023-04-25T10:08:11;100974.59;;;8.31;100.00
71666;BME280;59503;53.486;10.196;2023-04-25T10:10:39;100972.53;;;8.40;100.00
71666;BME280;59503;53.486;10.196;2023-04-25T10:13:05;100984.31;;;8.72;100.00
71666;BME280;59503;53.486;10.196;2023-04-25T10:15:35;100975.13;;;8.49;95.20
71666;BME280;59503;53.486;10.196;2023-04-25T10:18:04;100979.19;;;8.55;90.95
71666;BME280;59503;53.486;10.196;2023-04-25T10:20:30;100980.69;;;9.08;90.38
71666;BME280;59503;53.486;10.196;2023-04-25T10:23:12;100973.81;;;9.26;88.36
71666;BME280;59503;53.486;10.196;2023-04-25T10:25:39;100984.03;;;9.60;83.23
71666;BME280;59503;53.486;10.196;2023-04-25T10:28:05;100986.63;;;9.41;83.41
71666;BME280;59503;53.486;10.196;2023-04-25T10:30:31;100981.34;;;9.60;79.39
71666;BME280;59503;53.486;10.196;2023-04-25T10:32:59;100992.91;;;10.03;81.67
71666;BME280;59503;53.486;10.196;2023-04-25T10:35:27;100977.94;;;9.94;72.66
71666;BME280;59503;53.486;10.196;2023-04-25T10:38:09;100985.63;;;9.92;73.77
71666;BME280;59503;53.486;10.196;2023-04-25T10:40:35;100984.75;;;9.88;72.69
71666;BME280;59503;53.486;10.196;2023-04-25T10:43:39;100985.88;;;9.40;64.29
71666;BME280;59503;53.486;10.196;2023-04-25T10:46:19;100975.13;;;9.75;62.46
71666;BME280;59503;53.486;10.196;2023-04-25T10:48:55;100980.78;;;10.32;59.62
71666;BME280;59503;53.486;10.196;2023-04-25T10:51:22;100998.78;;;10.05;60.39
71666;BME280;59503;53.486;10.196;2023-04-25T10:53:57;100989.44;;;10.53;61.30
71666;BME280;59503;53.486;10.196;2023-04-25T10:56:28;100976.53;;;10.50;59.46
71666;BME280;59503;53.486;10.196;2023-04-25T10:59:13;100982.13;;;10.38;64.40
71666;BME280;59503;53.486;10.196;2023-04-25T11:01:44;100981.13;;;10.46;63.81
71666;BME280;59503;53.486;10.196;2023-04-25T11:04:29;100987.28;;;10.43;67.37
71666;BME280;59503;53.486;10.196;2023-04-25T11:09:29;100985.28;;;10.25;64.42
71666;BME280;59503;53.486;10.196;2023-04-25T11:11:57;100979.81;;;10.40;66.21
71666;BME280;59503;53.486;10.196;2023-04-25T11:14:23;100980.25;;;10.77;61.79
71666;BME280;59503;53.486;10.196;2023-04-25T11:16:56;100994.06;;;11.06;62.10
71666;BME280;59503;53.486;10.196;2023-04-25T11:19:22;100998.13;;;11.16;64.00
71666;BME280;59503;53.486;10.196;2023-04-25T11:21:48;100995.47;;;11.00;64.57
71666;BME280;59503;53.486;10.196;2023-04-25T11:24:13;101009.59;;;10.87;64.63
71666;BME280;59503;53.486;10.196;2023-04-25T11:26:43;100999.94;;;11.08;65.75
71666;BME280;59503;53.486;10.196;2023-04-25T11:29:11;101002.00;;;10.96;61.06
71666;BME280;59503;53.486;10.196;2023-04-25T11:31:37;101000.28;;;11.07;59.32
71666;BME280;59503;53.486;10.196;2023-04-25T11:34:02;100995.16;;;11.44;62.31
71666;BME280;59503;53.486;10.196;2023-04-25T11:36:28;100997.03;;;11.40;61.33
71666;BME280;59503;53.486;10.196;2023-04-25T11:38:54;101001.84;;;11.27;58.28
71666;BME280;59503;53.486;10.196;2023-04-25T11:41:19;100997.06;;;11.20;58.26
71666;BME280;59503;53.486;10.196;2023-04-25T11:43:45;101009.00;;;11.77;56.78
71666;BME280;59503;53.486;10.196;2023-04-25T11:46:11;101007.25;;;12.36;57.10
71666;BME280;59503;53.486;10.196;2023-04-25T11:48:40;101016.47;;;12.28;53.52
71666;BME280;59503;53.486;10.196;2023-04-25T11:51:06;101014.38;;;11.32;57.88
71666;BME280;59503;53.486;10.196;2023-04-25T11:53:32;101029.84;;;10.89;60.06
71666;BME280;59503;53.486;10.196;2023-04-25T11:55:58;101042.41;;;9.97;77.80
71666;BME280;59503;53.486;10.196;2023-04-25T11:58:23;101069.28;;;8.40;84.84
71666;BME280;59503;53.486;10.196;2023-04-25T12:00:49;101057.81;;;7.86;89.04
71666;BME280;59503;53.486;10.196;2023-04-25T12:03:14;101051.66;;;7.65;90.86
71666;BME280;59503;53.486;10.196;2023-04-25T12:05:40;101045.94;;;7.79;95.81
71666;BME280;59503;53.486;10.196;2023-04-25T12:08:12;101053.03;;;7.71;89.21
71666;BME280;59503;53.486;10.196;2023-04-25T12:10:40;101061.66;;;7.97;91.99
71666;BME280;59503;53.486;10.196;2023-04-25T12:13:22;101059.31;;;8.20;85.47
71666;BME280;59503;53.486;10.196;2023-04-25T12:15:47;101053.03;;;8.40;86.15
71666;BME280;59503;53.486;10.196;2023-04-25T12:18:14;101053.34;;;8.50;80.80
71666;BME280;59503;53.486;10.196;2023-04-25T12:20:41;101048.66;;;8.87;82.65
71666;BME280;59503;53.486;10.196;2023-04-25T12:23:06;101052.16;;;9.55;80.92
71666;BME280;59503;53.486;10.196;2023-04-25T12:25:38;101049.53;;;10.33;71.38
71666;BME280;59503;53.486;10.196;2023-04-25T12:28:24;101039.19;;;10.23;72.41
71666;BME280;59503;53.486;10.196;2023-04-25T12:31:03;101062.06;;;11.06;66.61
71666;BME280;59503;53.486;10.196;2023-04-25T12:33:31;101036.91;;;11.51;64.69
71666;BME280;59503;53.486;10.196;2023-04-25T12:35:58;101043.78;;;12.06;63.73
71666;BME280;59503;53.486;10.196;2023-04-25T12:38:25;101041.97;;;12.66;60.28
71666;BME280;59503;53.486;10.196;2023-04-25T12:40:51;101028.03;;;13.00;54.46
71666;BME280;59503;53.486;10.196;2023-04-25T12:43:17;101058.59;;;12.08;52.84
71666;BME280;59503;53.486;10.196;2023-04-25T12:45:44;101038.84;;;11.51;54.09
71666;BME280;59503;53.486;10.196;2023-04-25T12:48:09;101042.59;;;11.23;54.76
71666;BME280;59503;53.486;10.196;2023-04-25T12:50:35;101052.59;;;11.00;56.67
71666;BME280;59503;53.486;10.196;2023-04-25T12:53:00;101060.75;;;11.00;55.70
71666;BME280;59503;53.486;10.196;2023-04-25T12:55:26;101055.66;;;10.30;56.18
71666;BME280;59503;53.486;10.196;2023-04-25T12:57:51;101063.50;;;10.50;58.91